Address 0x2fc617e933a52713247ce25730f6695920b3befe

Txn Hash Method
Block
From
To
Value [Txn Fee]
0x10c3fb8247621637a3af9fc98c317ad6e4b543fa45e0ed999e8620456f24a621Transfer37685192024-03-01 20:27:253 mins ago0xe48541e2248d863ee35e54c2f3b7a3189e753c08 IN 0x2fc617e933a52713247ce25730f6695920b3befe0.008 ETH0.000009072
0x04a9a21362dbd8e2d5249bc60def8964c4a0519013fdd21980c4516de473d0bbTransfer37685022024-03-01 20:26:344 mins ago0x2fc617e933a52713247ce25730f6695920b3befeOUT0xa1a52191517a5561a8606455a3e9a16a2d5313760.01082 ETH0.000021
0x67be526665accba7ce21a64e9ba455e90d646bb6e5488fb275fe2021d24d4e60Transfer37684612024-03-01 20:24:316 mins ago0x2fc617e933a52713247ce25730f6695920b3befeOUT0x5108b44502431304358095554c22b7175b393a0c0.00922 ETH0.000021
0xa6f34802ca864f5481ae89ef906ce4ba189dcf2b6ae202e5ab5f8ec97e28d6b6Transfer37682922024-03-01 20:16:0314 mins ago0x801b99043b4681f85041017be886dedd2893a955 IN 0x2fc617e933a52713247ce25730f6695920b3befe0.01 ETH0.000009072
0x4324d8cf0741e3b6f2bfa635146e47cc5c39e8332c7be63b9a870adea8dfcaeaTransfer37682222024-03-01 20:12:3318 mins ago0xf51d9c8311cc58d1e26d425425568f7e2c5cc5c1 IN 0x2fc617e933a52713247ce25730f6695920b3befe0.0138 ETH0.000009072
0x6d84842fe19f5d9224ce50a50a24b92e2ef8d55fd79ab1dcb8104f961d028566Transfer*37682162024-03-01 20:12:1518 mins ago0xd55f189478e546cb368394d5048231a6ba26c099 IN 0x2fc617e933a52713247ce25730f6695920b3befe0.01 ETH0.00000926112
0x06ccf0b61a19cc4d74636bf6fcfd6a42485960765459ce272eea79a2952993f7Transfer*37682092024-03-01 20:11:5418 mins ago0xb122a1fd1305ff14ac91cb94018d70c5a720bcf3 IN 0x2fc617e933a52713247ce25730f6695920b3befe0.004 ETH0.000009092736
0xacd1bb82024b1b182490ac168fb151cb30eb96cf15a796f7ab20d2d5d9ea65daTransfer37681852024-03-01 20:10:4219 mins ago0x2fc617e933a52713247ce25730f6695920b3befeOUT0x361144ad29de8ea1da6b729f249774eebdda28810.000921 ETH0.000021
0x4d3e3e202c01e281cf313e0e7e28a6d3363ae23f1c7e58fc88ea7b7f7703b6caTransfer37681542024-03-01 20:09:0921 mins ago0x2fc617e933a52713247ce25730f6695920b3befeOUT0xb325b0a4b967b52766d5826ea512f067f8ae54c90.005636 ETH0.000021
0x8a61819c3776767ac635ed85dee0c4eb1d91350005644b02ccb70d4adaab29e2Transfer37680882024-03-01 20:05:5124 mins ago0x07afd8ccd378119f37f18703bb33c048b5b855ef IN 0x2fc617e933a52713247ce25730f6695920b3befe0.067 ETH0.000009072
0x9eee941b80e5274fabcbbc4668940b55bd78b58b504ee632f683af3cee1135b2Transfer37678522024-03-01 19:54:0336 mins ago0x2fc617e933a52713247ce25730f6695920b3befeOUT0xc990999d197f3ffedb1797e76085f7b91f14b81d0.04922 ETH0.000021
0x93659a1784d03acb463dbaa9317b81ff56cc6bb510391ced030cce2f1ed5cd63Transfer37678212024-03-01 19:52:3038 mins ago0x2fc617e933a52713247ce25730f6695920b3befeOUT0xbf1107975073b3fffdd253c5e7368f4a7b3679910.99922 ETH0.000021
0x4951dccc254c9d50d4cb54a4a5d1601be2c0a933e11d6884fa067d8ab447682dTransfer37678212024-03-01 19:52:3038 mins ago0x2fc617e933a52713247ce25730f6695920b3befeOUT0x32c07ee7db75da064466dd9c54bf1d9185cfa2720.00422 ETH0.000021
0xcfe92ecd2b7be6a8589c9c6b92167c410d7df7de559a87b537157c312789223cTransfer37677652024-03-01 19:49:4040 mins ago0x2fc617e933a52713247ce25730f6695920b3befeOUT0x640e6c0333b55bcdbcb0d383fe942ee91584752a0.005122 ETH0.000021
0xfeed1e756f9bf8c47fe470a2a1cbafc2f62faf8db655622cd74d1f95800215b7Transfer37676762024-03-01 19:45:1345 mins ago0x2fc617e933a52713247ce25730f6695920b3befeOUT0x5c7e2bf37f59adc28b66f3740f13b98280c4a6560.09922 ETH0.000021
0xa1993abbcbb185026e6933901d042e5005dac27c5a85ef3357924f78d078577dTransfer37676132024-03-01 19:42:0448 mins ago0x29c7035fadbd29f143ceee0eec0966711ebe6a6e IN 0x2fc617e933a52713247ce25730f6695920b3befe0.153 ETH0.000009072
0x19be094b01a8a1bac3c3469290629ec6848417c756e0f2c9a737b3e81dbd7ffbTransfer37675662024-03-01 19:39:4350 mins ago0xa04364317f678d78a0ba8d036438345b7104e282 IN 0x2fc617e933a52713247ce25730f6695920b3befe0.0988 ETH0.000009072
0x827b1d6b2b94c05cfd58e5bbcb7d9aed19d0cffa6ada00a35ee395e3f9804262Transfer37673762024-03-01 19:30:111 hr ago0x5c7e2bf37f59adc28b66f3740f13b98280c4a656 IN 0x2fc617e933a52713247ce25730f6695920b3befe0.099 ETH0.00000916272
0x6b0042dcab96e0a406ca5381ca18e5696c3f272f9438bf46c50ae23ecc4a5de7Transfer37673622024-03-01 19:29:291 hr 1 min ago0x072bbe68a3b64c2f3edee18399a200f84fccd96f IN 0x2fc617e933a52713247ce25730f6695920b3befe0.0997 ETH0.000009072
0x9d37d066633d17688af23cd86636768571727102386a053dcea48ccbace8c490Transfer37672932024-03-01 19:26:021 hr 4 mins ago0x2fc617e933a52713247ce25730f6695920b3befeOUT0x8dcb0f095ff4a2f21d0ebf8dc0e6bcb42d3a433c0.08722 ETH0.000021
0xeed7f404fd2332e7015defca2a2b177b7f3f95a48335b4a768868322b969d84eTransfer37672612024-03-01 19:24:261 hr 6 mins ago0x2fc617e933a52713247ce25730f6695920b3befeOUT0xd59ca530a5eadf437ba8c626ed8c8512b935270c0.07922 ETH0.000021
0xfa296a779d7dc59ff517eda873a459aa1bbdedba2c8db9cc8c4c66a2a340a715Transfer37671872024-03-01 19:20:441 hr 9 mins ago0x2fc617e933a52713247ce25730f6695920b3befeOUT0xf184896127976fc33adf166f8203241eedc423070.01922 ETH0.000021
0x2a163dc477d679e7a5335dcc1ad695a988fc637a6eb0a84a60d3ee3b50564883Transfer37671292024-03-01 19:17:501 hr 12 mins ago0xb4a2750d38c1d63dc70beec00ea8d30067c1b96b IN 0x2fc617e933a52713247ce25730f6695920b3befe0.367846 ETH0.000009072
0x148f36ce38ac3eb1bab5d4f45492e8ff281053c23b49a427af0b3ff0b050337eTransfer37671202024-03-01 19:17:231 hr 13 mins ago0x2fc617e933a52713247ce25730f6695920b3befeOUT0x10527bee70fe256ecde21540dc1c5978490349590.003519 ETH0.000021
0xe20be56b66cc5d4b9ad63550311cd1b61f4fd022bd4567dc83ce8dfb9e94c335Transfer37671192024-03-01 19:17:201 hr 13 mins ago0x2fc617e933a52713247ce25730f6695920b3befeOUT Scroll: USDC Token0 ETH0.000065536
[ Download CSV Export 
Parent Txn Hash Block From To Value
Index Block
Loading

Contract Name:
0

Compiler Version
0

Optimization Enabled:
0

Other Settings:
-NA-
Block Transaction Gas Used Reward
Age Block Fee Address BC Fee Address Voting Power Jailed Incoming
Block Uncle Number Difficulty Gas Used Reward
Loading
Loading
Make sure to use the "Vote Down" button for any spammy posts, and the "Vote Up" for interesting conversations.